Time;durP1;ratioP1;P1;durP2;ratioP2;P2;SDS_P1;SDS_P2;PMS_P1;PMS_P2;Temp;Humidity;BMP_temperature;BMP_pressure;BME280_temperature;BME280_humidity;BME280_pressure;Samples;Min_cycle;Max_cycle;Signal;HPM_P1;HPM_P2
2023/07/21 00:00:10;;;;;;;2.20;1.50;;;;;;;11.41;nan;100561.00;4805803;29;20442;-80
2023/07/21 00:02:38;;;;;;;1.88;1.70;;;;;;;11.37;nan;100562.88;4806842;29;20051;-79
2023/07/21 00:05:06;;;;;;;2.05;1.27;;;;;;;11.41;nan;100558.38;4820242;29;20042;-79
2023/07/21 00:07:35;;;;;;;1.73;1.30;;;;;;;11.42;nan;100557.44;4803146;29;20045;-79
2023/07/21 00:10:07;;;;;;;2.25;1.30;;;;;;;11.38;nan;100543.44;4806122;29;20043;-78
2023/07/21 00:12:47;;;;;;;2.58;1.23;;;;;;;11.32;nan;100543.59;4820602;29;20537;-78
2023/07/21 00:15:17;;;;;;;1.50;1.20;;;;;;;11.24;nan;100550.84;4790872;29;20079;-79
2023/07/21 00:17:48;;;;;;;1.98;1.75;;;;;;;11.18;nan;100549.25;4815569;29;20047;-77
2023/07/21 00:20:21;;;;;;;2.33;1.45;;;;;;;11.14;nan;100546.72;4813988;29;20050;-78
2023/07/21 00:22:49;;;;;;;2.42;1.50;;;;;;;11.10;nan;100553.84;4798476;29;20050;-77
2023/07/21 00:25:16;;;;;;;1.83;1.50;;;;;;;11.04;nan;100548.72;4825496;29;20043;-79
2023/07/21 00:27:46;;;;;;;1.83;1.27;;;;;;;11.05;nan;100533.72;4812268;29;20046;-77
2023/07/21 00:30:14;;;;;;;1.67;1.40;;;;;;;11.04;nan;100535.50;4804451;29;20038;-77
2023/07/21 00:32:42;;;;;;;1.75;1.20;;;;;;;11.00;nan;100537.31;4803695;29;20043;-79
2023/07/21 00:35:10;;;;;;;1.73;1.50;;;;;;;10.94;nan;100533.97;4826203;29;20046;-78
2023/07/21 00:37:41;;;;;;;3.05;1.75;;;;;;;10.90;nan;100532.31;4830534;29;20043;-79
2023/07/21 00:40:09;;;;;;;2.90;1.95;;;;;;;10.82;nan;100536.91;4804818;29;20458;-78
2023/07/21 00:42:37;;;;;;;2.50;2.30;;;;;;;10.76;nan;100543.19;4831839;29;20034;-79
2023/07/21 00:45:04;;;;;;;1.77;1.55;;;;;;;10.71;nan;100535.38;4817600;29;20062;-78
2023/07/21 00:47:34;;;;;;;2.40;1.80;;;;;;;10.70;nan;100541.56;4802531;29;20043;-79
2023/07/21 00:50:01;;;;;;;2.53;1.73;;;;;;;10.68;nan;100546.03;4807548;29;20054;-78
2023/07/21 00:52:28;;;;;;;2.15;1.80;;;;;;;10.70;nan;100544.22;4826394;29;20038;-78
2023/07/21 00:54:55;;;;;;;2.00;1.77;;;;;;;10.60;nan;100542.69;4835460;29;20049;-78
2023/07/21 00:57:23;;;;;;;2.25;1.67;;;;;;;10.52;nan;100544.63;4827549;29;20051;-78
2023/07/21 00:59:54;;;;;;;4.35;2.05;;;;;;;10.48;nan;100537.66;4805546;29;20043;-79
2023/07/21 01:02:29;;;;;;;4.47;1.75;;;;;;;10.46;nan;100539.47;4793264;29;20403;-79
2023/07/21 01:05:06;;;;;;;2.10;1.60;;;;;;;10.41;nan;100534.28;4804245;29;20051;-78
2023/07/21 01:07:38;;;;;;;1.63;1.40;;;;;;;10.38;nan;100529.06;4804828;29;20376;-79
2023/07/21 01:10:07;;;;;;;1.98;1.58;;;;;;;10.30;nan;100532.78;4829928;29;20069;-80
2023/07/21 01:12:35;;;;;;;4.05;2.35;;;;;;;10.24;nan;100532.91;4801293;29;20035;-82
2023/07/21 01:15:02;;;;;;;1.52;1.40;;;;;;;10.20;nan;100541.78;4798075;29;20058;-81
2023/07/21 01:17:29;;;;;;;2.45;1.60;;;;;;;10.16;nan;100543.59;4815189;29;20053;-81
2023/07/21 01:19:58;;;;;;;2.03;1.85;;;;;;;10.04;nan;100542.09;4810244;29;20035;-81
2023/07/21 01:22:42;;;;;;;2.22;1.73;;;;;;;10.04;nan;100543.84;4818099;29;20411;-80
2023/07/21 01:25:16;;;;;;;;;;;;;;;10.00;nan;100540.38;4794291;29;20051;-82
2023/07/21 01:27:52;;;;;;;1.85;1.40;;;;;;;9.96;nan;100544.00;4828872;29;19932;-80
2023/07/21 01:30:29;;;;;;;1.80;1.60;;;;;;;9.96;nan;100544.00;4798686;29;20045;-80
2023/07/21 01:33:05;;;;;;;3.28;1.50;;;;;;;9.90;nan;100538.84;4830050;29;20050;-80
2023/07/21 01:35:38;;;;;;;2.53;1.92;;;;;;;9.87;nan;100541.56;4798546;29;20043;-79
2023/07/21 01:38:05;;;;;;;3.17;1.88;;;;;;;9.78;nan;100541.72;4792422;29;20051;-80
2023/07/21 01:40:33;;;;;;;2.00;1.60;;;;;;;9.78;nan;100534.69;4808301;29;20043;-79
2023/07/21 01:43:00;;;;;;;3.00;1.88;;;;;;;9.79;nan;100532.91;4818113;29;20538;-80
2023/07/21 01:45:27;;;;;;;4.07;1.67;;;;;;;9.79;nan;100535.56;4798921;29;20053;-79
2023/07/21 01:47:55;;;;;;;2.13;1.70;;;;;;;9.74;nan;100530.34;4829212;29;20450;-80
2023/07/21 01:50:24;;;;;;;1.70;1.50;;;;;;;9.70;nan;100536.59;4830476;29;20050;-80
2023/07/21 01:52:51;;;;;;;2.20;1.40;;;;;;;9.69;nan;100531.34;4793523;29;20051;-82
2023/07/21 01:55:32;;;;;;;2.33;1.40;;;;;;;9.73;nan;100530.38;4797475;29;20043;-80
2023/07/21 01:58:06;;;;;;;3.53;1.63;;;;;;;9.71;nan;100535.69;4802585;29;20055;-80
2023/07/21 02:00:36;;;;;;;3.30;1.85;;;;;;;9.62;nan;100532.38;4795679;29;20051;-80
2023/07/21 02:03:16;;;;;;;2.08;1.60;;;;;;;9.50;nan;100529.06;4813353;29;20724;-80
2023/07/21 02:05:43;;;;;;;1.98;1.42;;;;;;;9.47;nan;100531.72;4818142;29;20723;-80
2023/07/21 02:08:10;;;;;;;2.35;1.50;;;;;;;9.43;nan;100531.84;4802909;29;20038;-80
2023/07/21 02:10:37;;;;;;;2.90;1.52;;;;;;;9.37;nan;100530.16;4825624;29;20047;-80
2023/07/21 02:13:04;;;;;;;2.20;1.83;;;;;;;9.26;nan;100540.03;4809888;29;20496;-81
2023/07/21 02:15:32;;;;;;;2.13;1.63;;;;;;;9.19;nan;100538.41;4804072;29;20069;-81
2023/07/21 02:17:59;;;;;;;2.20;1.33;;;;;;;9.23;nan;100533.03;4775098;29;20060;-82
2023/07/21 02:20:27;;;;;;;2.75;1.63;;;;;;;9.27;nan;100531.22;4786343;29;20050;-82
2023/07/21 02:22:55;;;;;;;2.47;1.40;;;;;;;9.25;nan;100528.63;4828533;29;20502;-81
2023/07/21 02:25:22;;;;;;;2.92;1.60;;;;;;;9.23;nan;100529.53;4803763;29;20038;-81
2023/07/21 02:27:49;;;;;;;2.05;1.73;;;;;;;9.16;nan;100525.25;4788977;29;20050;-82
2023/07/21 02:30:16;;;;;;;2.75;1.60;;;;;;;9.10;nan;100525.38;4798873;29;20037;-81
2023/07/21 02:32:43;;;;;;;1.63;1.30;;;;;;;9.05;nan;100527.19;4813753;29;20042;-81
2023/07/21 02:35:13;;;;;;;1.88;1.70;;;;;;;9.08;nan;100524.50;4799641;29;20054;-82
2023/07/21 02:37:40;;;;;;;2.50;1.50;;;;;;;9.06;nan;100518.41;4798250;29;20049;-81
2023/07/21 02:40:08;;;;;;;2.15;1.60;;;;;;;9.07;nan;100520.13;4799730;29;20051;-80
2023/07/21 02:42:39;;;;;;;2.65;1.92;;;;;;;9.05;nan;100516.66;4795864;29;20047;-81
2023/07/21 02:45:12;;;;;;;2.65;1.63;;;;;;;9.08;nan;100512.22;4805221;29;20051;-81
2023/07/21 02:47:47;;;;;;;1.70;1.50;;;;;;;9.01;nan;100518.50;4799313;29;20414;-80
2023/07/21 02:50:15;;;;;;;3.25;1.45;;;;;;;8.90;nan;100523.03;4811775;29;20046;-80
2023/07/21 02:52:49;;;;;;;2.00;1.80;;;;;;;8.92;nan;100522.16;4807463;29;20034;-80
2023/07/21 02:55:23;;;;;;;2.10;1.42;;;;;;;8.98;nan;100508.84;4811172;29;20043;-80
2023/07/21 02:57:59;;;;;;;1.90;1.40;;;;;;;8.91;nan;100504.59;4808026;29;20086;-81
2023/07/21 03:00:28;;;;;;;2.60;2.00;;;;;;;8.94;nan;100507.16;4802946;29;20047;-80
2023/07/21 03:02:56;;;;;;;1.95;1.70;;;;;;;8.89;nan;100513.41;4778416;29;20054;-78
2023/07/21 03:05:29;;;;;;;2.07;1.80;;;;;;;8.81;nan;100516.16;4824973;29;20043;-79
2023/07/21 03:08:01;;;;;;;2.45;1.40;;;;;;;8.67;nan;100513.75;4818318;29;20051;-79
2023/07/21 03:10:35;;;;;;;3.60;1.70;;;;;;;8.66;nan;100519.00;4805475;29;20047;-79
2023/07/21 03:13:07;;;;;;;2.10;1.40;;;;;;;8.65;nan;100515.50;4808932;29;20046;-79
2023/07/21 03:15:45;;;;;;;2.93;1.60;;;;;;;8.61;nan;100518.22;4796287;29;20051;-79
2023/07/21 03:18:17;;;;;;;1.80;1.40;;;;;;;8.62;nan;100512.06;4797407;29;20053;-78
2023/07/21 03:20:49;;;;;;;3.20;1.80;;;;;;;8.58;nan;100515.66;4769714;29;20070;-78
2023/07/21 03:23:23;;;;;;;2.63;1.43;;;;;;;8.53;nan;100520.09;4798207;29;20049;-77
2023/07/21 03:25:59;;;;;;;2.43;1.67;;;;;;;8.50;nan;100521.03;4826935;29;20047;-79
2023/07/21 03:28:36;;;;;;;2.03;1.80;;;;;;;8.48;nan;100521.91;4828732;29;20049;-78
2023/07/21 03:31:11;;;;;;;1.83;1.63;;;;;;;8.44;nan;100526.38;4799223;29;20080;-79
2023/07/21 03:33:47;;;;;;;2.33;1.50;;;;;;;8.45;nan;100518.44;4806856;29;20039;-78
2023/07/21 03:36:20;;;;;;;1.60;1.50;;;;;;;8.48;nan;100522.78;4802434;29;20043;-78
2023/07/21 03:38:48;;;;;;;1.90;1.70;;;;;;;8.45;nan;100518.44;4815000;29;20042;-79
2023/07/21 03:41:15;;;;;;;3.75;1.88;;;;;;;8.46;nan;100519.31;4805001;29;20049;-79
2023/07/21 03:43:42;;;;;;;3.60;1.75;;;;;;;8.45;nan;100510.53;4835346;29;20056;-79
2023/07/21 03:46:09;;;;;;;2.67;2.13;;;;;;;8.52;nan;100521.88;4803311;29;20499;-79
2023/07/21 03:48:36;;;;;;;2.10;1.50;;;;;;;8.54;nan;100521.84;4801571;29;20441;-78
2023/07/21 03:51:05;;;;;;;2.10;1.60;;;;;;;8.53;nan;100512.19;4818950;29;20045;-79
2023/07/21 03:53:32;;;;;;;2.15;1.67;;;;;;;8.58;nan;100505.13;4837617;29;20042;-79
2023/07/21 03:56:04;;;;;;;1.92;1.40;;;;;;;8.57;nan;100509.47;4806054;29;20053;-79
2023/07/21 03:58:31;;;;;;;3.50;1.57;;;;;;;8.53;nan;100514.84;4805661;29;20047;-79
2023/07/21 04:00:59;;;;;;;2.07;1.70;;;;;;;8.52;nan;100507.84;4827955;29;20599;-79
2023/07/21 04:03:26;;;;;;;1.55;1.45;;;;;;;8.52;nan;100513.09;4832092;29;20534;-79
2023/07/21 04:05:54;;;;;;;3.72;1.60;;;;;;;8.49;nan;100519.25;4801898;29;20042;-79
2023/07/21 04:08:24;;;;;;;2.33;1.67;;;;;;;8.50;nan;100517.53;4804874;29;20054;-78
2023/07/21 04:10:51;;;;;;;3.92;1.90;;;;;;;8.51;nan;100508.72;4829250;29;20057;-79
2023/07/21 04:13:18;;;;;;;1.80;1.45;;;;;;;8.50;nan;100512.25;4808388;29;20043;-79
2023/07/21 04:15:50;;;;;;;3.28;1.63;;;;;;;8.54;nan;100520.06;4833290;29;20047;-77
2023/07/21 04:18:17;;;;;;;1.85;1.50;;;;;;;8.64;nan;100512.91;4806816;29;20049;-78
2023/07/21 04:20:44;;;;;;;2.83;1.80;;;;;;;8.67;nan;100519.00;4832986;29;20043;-78
2023/07/21 04:23:12;;;;;;;2.23;1.60;;;;;;;8.74;nan;100518.03;4830390;29;20043;-78
2023/07/21 04:25:39;;;;;;;4.07;1.60;;;;;;;8.78;nan;100516.22;4805998;29;20047;-79
2023/07/21 04:28:06;;;;;;;2.40;1.88;;;;;;;8.83;nan;100522.28;4831412;29;20715;-78
2023/07/21 04:30:34;;;;;;;4.32;2.28;;;;;;;8.87;nan;100526.59;4830778;29;20045;-79
2023/07/21 04:33:03;;;;;;;1.98;1.80;;;;;;;8.91;nan;100523.03;4802702;29;20053;-78
2023/07/21 04:35:31;;;;;;;3.15;1.70;;;;;;;8.92;nan;100503.69;4806996;29;20046;-77
2023/07/21 04:37:59;;;;;;;5.85;2.00;;;;;;;9.09;nan;100481.47;4810531;29;20050;-78
2023/07/21 04:40:26;;;;;;;11.98;3.22;;;;;;;9.28;nan;100496.06;4817323;29;20039;-78
2023/07/21 04:42:53;;;;;;;3.53;1.52;;;;;;;9.49;nan;100505.31;4814323;29;20042;-78
2023/07/21 04:45:20;;;;;;;2.58;1.67;;;;;;;9.61;nan;100505.13;4829004;29;20042;-80
2023/07/21 04:47:49;;;;;;;1.80;1.48;;;;;;;9.78;nan;100513.56;4807645;29;20046;-79
2023/07/21 04:50:16;;;;;;;3.78;2.03;;;;;;;9.88;nan;100512.50;4803365;29;20047;-78
2023/07/21 04:52:43;;;;;;;2.88;1.40;;;;;;;10.00;nan;100508.72;4804279;29;20522;-78
2023/07/21 04:55:10;;;;;;;3.47;1.60;;;;;;;10.09;nan;100508.56;4804905;29;20059;-78
2023/07/21 04:57:37;;;;;;;3.00;1.58;;;;;;;10.17;nan;100511.00;4818444;29;20705;-78
2023/07/21 05:00:11;;;;;;;1.70;1.52;;;;;;;10.23;nan;100516.19;4800848;29;20043;-78
2023/07/21 05:02:38;;;;;;;2.35;1.42;;;;;;;10.35;nan;100501.88;4802871;29;20034;-78
2023/07/21 05:05:06;;;;;;;2.90;1.52;;;;;;;10.42;nan;100507.00;4825909;29;20047;-77
2023/07/21 05:07:33;;;;;;;1.75;1.50;;;;;;;10.57;nan;100499.59;4801942;29;20435;-77
2023/07/21 05:10:00;;;;;;;1.80;1.52;;;;;;;10.77;nan;100507.97;4831405;29;20043;-77
2023/07/21 05:12:27;;;;;;;1.60;1.50;;;;;;;11.00;nan;100510.88;4831989;29;20045;-77
2023/07/21 05:14:54;;;;;;;1.85;1.33;;;;;;;11.25;nan;100500.56;4800137;29;20039;-79
2023/07/21 05:17:21;;;;;;;1.67;1.23;;;;;;;11.50;nan;100495.50;4787778;29;20046;-78
2023/07/21 05:19:48;;;;;;;2.50;1.50;;;;;;;11.66;nan;100498.59;4825721;29;20511;-78
2023/07/21 05:22:15;;;;;;;2.40;1.70;;;;;;;11.78;nan;100502.69;4817006;29;20054;-78
2023/07/21 05:24:43;;;;;;;2.90;1.73;;;;;;;11.87;nan;100498.97;4817169;29;20053;-78
2023/07/21 05:27:10;;;;;;;2.60;1.40;;;;;;;11.96;nan;100502.22;4806558;29;20046;-78
2023/07/21 05:29:37;;;;;;;1.80;1.48;;;;;;;12.00;nan;100493.25;4828223;29;20043;-78
2023/07/21 05:32:05;;;;;;;2.47;1.40;;;;;;;12.07;nan;100486.88;4800740;29;20057;-77
2023/07/21 05:34:33;;;;;;;1.77;1.30;;;;;;;12.20;nan;100483.88;4805544;29;20034;-77
2023/07/21 05:37:01;;;;;;;2.28;1.50;;;;;;;12.34;nan;100479.88;4812472;29;20043;-78
2023/07/21 05:39:29;;;;;;;1.35;1.23;;;;;;;12.48;nan;100491.84;4799491;29;20043;-79
2023/07/21 05:41:59;;;;;;;1.80;1.40;;;;;;;12.60;nan;100488.78;4802071;29;20414;-78
2023/07/21 05:44:26;;;;;;;1.52;1.20;;;;;;;12.70;nan;100492.06;4804039;29;20043;-78
2023/07/21 05:46:53;;;;;;;1.80;1.40;;;;;;;12.86;nan;100480.00;4801703;29;20043;-77
2023/07/21 05:49:21;;;;;;;2.22;1.50;;;;;;;13.89;nan;100488.84;4827903;29;20057;-77
2023/07/21 05:51:50;;;;;;;1.60;1.50;;;;;;;16.04;nan;100479.97;4813763;29;20045;-78
2023/07/21 05:54:17;;;;;;;1.77;1.20;;;;;;;16.95;nan;100481.00;4803716;29;20038;-78
2023/07/21 05:56:44;;;;;;;2.17;1.23;;;;;;;17.17;nan;100476.34;4805451;29;20045;-78
2023/07/21 05:59:11;;;;;;;2.17;1.55;;;;;;;17.53;nan;100475.38;4831632;29;20039;-78
2023/07/21 06:01:38;;;;;;;1.83;1.20;;;;;;;17.83;nan;100479.16;4803494;29;20110;-79
2023/07/21 06:04:06;;;;;;;2.45;1.17;;;;;;;18.08;nan;100478.69;4803902;29;20039;-79
2023/07/21 06:06:33;;;;;;;1.55;1.25;;;;;;;17.72;nan;100476.16;4800991;29;20049;-78
2023/07/21 06:09:00;;;;;;;3.53;1.60;;;;;;;17.50;nan;100476.41;4798843;29;20043;-78
2023/07/21 06:11:27;;;;;;;2.42;1.50;;;;;;;17.13;nan;100477.41;4832598;29;20038;-78
2023/07/21 06:13:54;;;;;;;1.60;1.40;;;;;;;16.83;nan;100475.34;4806083;29;20047;-78
2023/07/21 06:16:24;;;;;;;3.00;1.30;;;;;;;16.56;nan;100469.53;4807945;29;20050;-78
2023/07/21 06:18:52;;;;;;;2.25;1.98;;;;;;;16.75;nan;100469.53;4788220;29;20507;-78
2023/07/21 06:21:23;;;;;;;1.63;1.30;;;;;;;16.74;nan;100473.13;4823269;29;20442;-78
2023/07/21 06:23:51;;;;;;;1.33;1.13;;;;;;;16.92;nan;100463.34;4801768;29;20043;-78
2023/07/21 06:26:19;;;;;;;2.13;1.38;;;;;;;17.16;nan;100469.28;4798511;29;20668;-78
2023/07/21 06:28:46;;;;;;;1.92;1.30;;;;;;;17.44;nan;100474.91;4824910;29;20034;-79
2023/07/21 06:31:14;;;;;;;2.85;1.50;;;;;;;17.44;nan;100466.03;4825987;29;20049;-78
2023/07/21 06:33:41;;;;;;;2.65;1.30;;;;;;;17.52;nan;100471.84;4799735;29;20043;-80
2023/07/21 06:36:08;;;;;;;1.30;1.20;;;;;;;17.93;nan;100467.03;4797994;29;20057;-79
2023/07/21 06:38:35;;;;;;;2.55;1.30;;;;;;;18.10;nan;100458.09;4813775;29;20053;-79
2023/07/21 06:41:04;;;;;;;1.50;1.13;;;;;;;18.10;nan;100460.75;4800756;29;20039;-78
2023/07/21 06:43:32;;;;;;;1.30;1.20;;;;;;;17.94;nan;100462.53;4801801;29;20412;-79
2023/07/21 06:45:59;;;;;;;1.75;1.20;;;;;;;17.84;nan;100464.84;4799670;29;20049;-78
2023/07/21 06:48:26;;;;;;;1.85;1.30;;;;;;;17.72;nan;100457.47;4813325;29;20399;-78
2023/07/21 06:50:53;;;;;;;2.65;1.52;;;;;;;17.53;nan;100462.03;4799577;29;20046;-79
2023/07/21 06:53:20;;;;;;;1.70;1.00;;;;;;;17.38;nan;100455.66;4829515;29;20047;-78
2023/07/21 06:55:51;;;;;;;2.47;1.30;;;;;;;17.28;nan;100457.97;4812500;29;20045;-78
2023/07/21 06:58:18;;;;;;;1.60;1.30;;;;;;;17.22;nan;100458.25;4804453;29;20389;-78
2023/07/21 07:00:46;;;;;;;1.83;1.33;;;;;;;17.19;nan;100460.25;4825669;29;20035;-78
2023/07/21 07:03:13;;;;;;;1.30;1.20;;;;;;;17.21;nan;100459.22;4825014;29;20045;-79
2023/07/21 07:05:44;;;;;;;3.08;1.70;;;;;;;17.10;nan;100462.44;4811349;29;20057;-77
2023/07/21 07:08:12;;;;;;;2.13;1.40;;;;;;;17.08;nan;100466.13;4825308;29;20050;-78
2023/07/21 07:10:39;;;;;;;2.53;1.42;;;;;;;16.92;nan;100467.84;4831438;29;20278;-78
2023/07/21 07:13:06;;;;;;;2.75;1.92;;;;;;;16.89;nan;100461.69;4799544;29;20069;-78
2023/07/21 07:15:33;;;;;;;2.55;1.50;;;;;;;16.83;nan;100466.50;4812294;29;20053;-78
2023/07/21 07:18:00;;;;;;;2.70;1.65;;;;;;;16.79;nan;100462.22;4832684;29;20529;-78
2023/07/21 07:20:28;;;;;;;1.98;1.50;;;;;;;16.78;nan;100464.03;4831675;29;20043;-78
2023/07/21 07:22:56;;;;;;;2.40;1.27;;;;;;;16.79;nan;100465.75;4828158;29;20035;-77
2023/07/21 07:25:25;;;;;;;1.90;1.30;;;;;;;16.85;nan;100468.13;4812613;29;20491;-78
2023/07/21 07:27:53;;;;;;;9.85;2.60;;;;;;;16.83;nan;100462.00;4805746;29;20043;-78
2023/07/21 07:30:20;;;;;;;6.63;2.13;;;;;;;16.86;nan;100458.31;4831582;29;20073;-78
2023/07/21 07:32:48;;;;;;;3.47;1.48;;;;;;;16.84;nan;100466.41;4802537;29;20099;-77
2023/07/21 07:35:16;;;;;;;1.50;1.40;;;;;;;16.81;nan;100471.00;4827997;29;20039;-79
2023/07/21 07:37:43;;;;;;;1.30;1.20;;;;;;;16.95;nan;100465.88;4791819;29;20047;-77
2023/07/21 07:40:11;;;;;;;2.22;1.60;;;;;;;16.93;nan;100467.75;4810244;29;20050;-79
2023/07/21 07:42:39;;;;;;;1.88;1.52;;;;;;;16.87;nan;100473.38;4830475;29;20065;-79
2023/07/21 07:45:06;;;;;;;1.60;1.40;;;;;;;16.83;nan;100477.16;4823973;29;20449;-79
2023/07/21 07:47:34;;;;;;;1.65;1.20;;;;;;;16.91;nan;100474.97;4826724;29;20050;-79
2023/07/21 07:50:02;;;;;;;3.85;1.50;;;;;;;16.99;nan;100480.81;4828902;29;20054;-78
2023/07/21 07:52:30;;;;;;;3.05;1.40;;;;;;;17.00;nan;100479.00;4797411;29;20051;-78
2023/07/21 07:54:57;;;;;;;4.18;1.63;;;;;;;16.97;nan;100474.66;4828273;29;20448;-78
2023/07/21 07:57:26;;;;;;;1.55;1.30;;;;;;;17.05;nan;100472.47;4799423;29;20046;-79
2023/07/21 07:59:53;;;;;;;6.70;1.67;;;;;;;17.22;nan;100478.75;4811677;29;20042;-79
2023/07/21 08:02:20;;;;;;;1.63;1.35;;;;;;;17.23;nan;100478.69;4799402;29;20041;-78
2023/07/21 08:04:47;;;;;;;1.88;1.30;;;;;;;17.28;nan;100483.78;4827725;29;20035;-79
2023/07/21 08:07:14;;;;;;;3.03;1.65;;;;;;;17.48;nan;100480.94;4816779;29;20447;-79
2023/07/21 08:09:41;;;;;;;2.55;1.45;;;;;;;17.57;nan;100476.94;4828521;29;20048;-78
2023/07/21 08:12:08;;;;;;;3.15;1.30;;;;;;;17.65;nan;100480.94;4807927;29;20043;-78
2023/07/21 08:14:35;;;;;;;2.75;1.77;;;;;;;17.79;nan;100482.91;4818313;29;20046;-79
2023/07/21 08:17:02;;;;;;;2.33;1.40;;;;;;;17.95;nan;100486.50;4805592;29;20071;-78
2023/07/21 08:19:32;;;;;;;1.98;1.25;;;;;;;17.86;nan;100478.97;4821716;29;20043;-80
2023/07/21 08:22:05;;;;;;;1.80;1.30;;;;;;;17.95;nan;100470.47;4772033;30;20047;-78
2023/07/21 08:24:33;;;;;;;4.28;1.60;;;;;;;17.87;nan;100478.03;4819367;29;20061;-80
2023/07/21 08:27:02;;;;;;;2.30;1.38;;;;;;;17.84;nan;100477.34;4798171;29;20499;-82
2023/07/21 08:29:29;;;;;;;1.92;1.20;;;;;;;18.11;nan;100473.19;4813550;29;20046;-83
2023/07/21 08:31:56;;;;;;;3.70;1.52;;;;;;;18.12;nan;100458.00;4809557;29;20042;-82
2023/07/21 08:34:23;;;;;;;4.75;1.40;;;;;;;18.14;nan;100464.13;4801457;29;20047;-81
2023/07/21 08:36:50;;;;;;;3.30;1.27;;;;;;;18.29;nan;100463.28;4794581;29;20045;-80
2023/07/21 08:39:21;;;;;;;3.55;1.70;;;;;;;18.41;nan;100459.91;4796642;29;20038;-81
2023/07/21 08:41:49;;;;;;;2.53;1.10;;;;;;;18.46;nan;100459.66;4802609;29;20043;-80
2023/07/21 08:44:17;;;;;;;5.75;1.40;;;;;;;18.60;nan;100461.56;4795902;29;20039;-82
2023/07/21 08:46:44;;;;;;;2.55;1.40;;;;;;;18.64;nan;100445.22;4807925;29;20043;-80
2023/07/21 08:49:12;;;;;;;6.68;1.13;;;;;;;18.76;nan;100454.41;4797780;29;20047;-80
2023/07/21 08:51:39;;;;;;;2.28;1.10;;;;;;;18.83;nan;100455.75;4813483;29;20055;-80
2023/07/21 08:54:06;;;;;;;2.67;1.67;;;;;;;18.95;nan;100455.06;4798346;29;20049;-80
2023/07/21 08:56:33;;;;;;;2.22;1.23;;;;;;;19.10;nan;100454.19;4830593;29;20049;-79
2023/07/21 08:58:59;;;;;;;1.90;1.40;;;;;;;19.34;nan;100456.34;4829569;29;20143;-79
2023/07/21 09:01:26;;;;;;;3.58;1.80;;;;;;;19.43;nan;100458.47;4802328;29;20045;-80
2023/07/21 09:03:53;;;;;;;3.47;2.15;;;;;;;19.29;nan;100459.28;4800305;29;20035;-80
2023/07/21 09:06:20;;;;;;;2.40;1.60;;;;;;;19.35;nan;100456.25;4798965;29;20055;-80
2023/07/21 09:08:47;;;;;;;5.18;2.13;;;;;;;19.51;nan;100456.19;4829956;29;20045;-80
2023/07/21 09:11:15;;;;;;;3.88;1.77;;;;;;;19.48;nan;100452.81;4798445;29;20047;-80
2023/07/21 09:13:51;;;;;;;4.50;2.60;;;;;;;19.69;nan;100451.56;4825683;29;20721;-80
2023/07/21 09:16:19;;;;;;;4.13;2.72;;;;;;;19.81;nan;100448.09;4801699;29;20062;-80
2023/07/21 09:18:48;;;;;;;4.25;2.42;;;;;;;19.98;nan;100459.59;4810516;29;20046;-81
2023/07/21 09:21:20;;;;;;;4.47;2.40;;;;;;;20.12;nan;100452.41;4790463;29;20049;-81
2023/07/21 09:23:48;;;;;;;17.63;4.20;;;;;;;20.10;nan;100453.47;4812240;29;20053;-82
2023/07/21 09:26:22;;;;;;;5.53;2.50;;;;;;;20.05;nan;100452.91;4817040;29;20388;-78
2023/07/21 09:28:50;;;;;;;32.85;5.47;;;;;;;20.00;nan;100447.81;4808614;29;20053;-80
2023/07/21 09:31:17;;;;;;;3.80;2.22;;;;;;;19.98;nan;100457.78;4827734;29;20050;-81
2023/07/21 09:33:45;;;;;;;4.15;2.60;;;;;;;19.83;nan;100446.19;4829875;29;20054;-81
2023/07/21 09:36:15;;;;;;;3.13;2.08;;;;;;;19.76;nan;100450.22;4802411;29;20069;-80
2023/07/21 09:38:43;;;;;;;4.38;2.33;;;;;;;19.66;nan;100449.91;4784298;29;20049;-81
2023/07/21 09:41:15;;;;;;;2.70;1.98;;;;;;;19.60;nan;100455.66;4796538;29;20038;-80
2023/07/21 09:43:43;;;;;;;29.70;4.60;;;;;;;19.56;nan;100453.22;4812859;29;21306;-81
2023/07/21 09:46:10;;;;;;;4.72;2.50;;;;;;;19.52;nan;100447.19;4808476;29;20050;-81
2023/07/21 09:48:44;;;;;;;;;;;;;;;19.46;nan;100446.69;4833581;29;20049;-82
2023/07/21 09:51:11;;;;;;;3.67;2.72;;;;;;;19.51;nan;100440.13;4835936;29;20286;-82
2023/07/21 09:53:45;;;;;;;2.80;2.30;;;;;;;19.52;nan;100447.19;4797576;29;20042;-81
2023/07/21 09:56:16;;;;;;;4.15;2.45;;;;;;;19.55;nan;100444.31;4830528;29;20060;-80
2023/07/21 09:58:52;;;;;;;3.35;2.10;;;;;;;19.69;nan;100443.53;4799737;29;20545;-82
2023/07/21 10:01:19;;;;;;;3.03;2.00;;;;;;;19.63;nan;100438.53;4827788;29;20426;-81
2023/07/21 10:03:47;;;;;;;2.53;1.90;;;;;;;19.66;nan;100433.81;4800145;29;20039;-80
2023/07/21 10:06:15;;;;;;;3.15;1.90;;;;;;;19.72;nan;100426.38;4809585;29;20044;-80
2023/07/21 10:08:42;;;;;;;2.78;1.88;;;;;;;19.67;nan;100426.66;4804977;29;20038;-81
2023/07/21 10:11:09;;;;;;;5.07;2.15;;;;;;;19.57;nan;100421.00;4807014;29;20103;-81
2023/07/21 10:13:44;;;;;;;4.13;2.25;;;;;;;19.76;nan;100422.53;4817820;29;20043;-82
2023/07/21 10:16:11;;;;;;;3.63;2.38;;;;;;;19.85;nan;100416.63;4817757;29;20063;-82
2023/07/21 10:19:03;;;;;;;4.40;2.20;;;;;;;19.97;nan;100415.84;4807857;29;20050;-81
2023/07/21 10:21:31;;;;;;;4.05;2.45;;;;;;;20.14;nan;100412.06;4802011;29;20041;-81
2023/07/21 10:24:01;;;;;;;3.72;2.30;;;;;;;20.30;nan;100411.97;4803503;29;20522;-80
2023/07/21 10:26:29;;;;;;;3.65;2.08;;;;;;;19.75;nan;100410.09;4824408;29;20049;-80
2023/07/21 10:29:13;;;;;;;3.42;1.92;;;;;;;20.22;nan;100407.94;4813793;29;20422;-80
2023/07/21 10:31:53;;;;;;;3.45;2.33;;;;;;;20.51;nan;100397.16;4810394;29;20053;-81
2023/07/21 10:34:25;;;;;;;3.45;2.13;;;;;;;20.76;nan;100404.44;4795592;29;20039;-80
2023/07/21 10:36:52;;;;;;;2.33;1.75;;;;;;;20.95;nan;100404.94;4796599;29;20042;-81
2023/07/21 10:39:28;;;;;;;3.85;1.98;;;;;;;21.11;nan;100393.16;4810411;29;20050;-80
2023/07/21 10:41:57;;;;;;;4.43;2.50;;;;;;;21.26;nan;100397.47;4800634;29;20393;-80
2023/07/21 10:44:38;;;;;;;3.78;2.72;;;;;;;21.29;nan;100390.09;4812319;29;20047;-82
2023/07/21 10:47:13;;;;;;;3.63;2.45;;;;;;;21.34;nan;100392.44;4819616;29;20418;-81
2023/07/21 10:49:41;;;;;;;6.25;2.70;;;;;;;21.24;nan;100389.50;4799805;29;20043;-79
2023/07/21 10:52:09;;;;;;;2.78;2.20;;;;;;;21.29;nan;100390.09;4797403;29;20055;-81
2023/07/21 10:54:36;;;;;;;37.15;5.63;;;;;;;21.30;nan;100389.13;4799257;29;20042;-81
2023/07/21 10:57:03;;;;;;;2.92;2.45;;;;;;;21.09;nan;100385.19;4827493;29;20057;-80
2023/07/21 10:59:35;;;;;;;2.75;2.40;;;;;;;21.22;nan;100385.22;4826647;29;20047;-80
2023/07/21 11:02:03;;;;;;;3.75;2.40;;;;;;;21.31;nan;100381.94;4797071;29;20045;-82
2023/07/21 11:04:31;;;;;;;3.35;2.60;;;;;;;21.43;nan;100377.50;4796212;29;20496;-81
2023/07/21 11:06:59;;;;;;;4.05;3.03;;;;;;;21.69;nan;100378.34;4800863;29;20042;-82
2023/07/21 11:09:27;;;;;;;3.15;2.40;;;;;;;21.82;nan;100371.16;4812063;29;20077;-80
2023/07/21 11:11:57;;;;;;;3.13;2.00;;;;;;;21.44;nan;100379.22;4795175;29;20049;-81
2023/07/21 11:14:25;;;;;;;2.97;2.00;;;;;;;21.72;nan;100365.56;4809402;29;20035;-81
2023/07/21 11:16:55;;;;;;;3.85;2.08;;;;;;;21.49;nan;100374.41;4814003;29;20092;-81
2023/07/21 11:19:27;;;;;;;5.53;1.95;;;;;;;21.27;nan;100372.34;4825327;29;20043;-80
2023/07/21 11:21:54;;;;;;;4.45;2.50;;;;;;;21.52;nan;100369.66;4814500;29;20046;-80
2023/07/21 11:24:26;;;;;;;3.03;2.25;;;;;;;21.70;nan;100370.22;4801397;29;20049;-81
2023/07/21 11:27:05;;;;;;;2.47;1.70;;;;;;;21.72;nan;100362.03;4798538;29;20388;-80
2023/07/21 11:29:38;;;;;;;2.35;1.65;;;;;;;21.64;nan;100359.88;4831142;29;20061;-80
2023/07/21 11:32:22;;;;;;;1.88;1.65;;;;;;;21.54;nan;100354.31;4796726;29;20049;-81
2023/07/21 11:34:59;;;;;;;2.45;1.70;;;;;;;21.25;nan;100353.63;4809119;29;20042;-81
2023/07/21 11:37:38;;;;;;;3.67;2.08;;;;;;;21.00;nan;100349.06;4815797;29;20047;-79
2023/07/21 11:40:08;;;;;;;3.58;2.10;;;;;;;20.91;nan;100348.84;4797052;29;20042;-81
2023/07/21 11:42:43;;;;;;;2.42;2.00;;;;;;;20.68;nan;100345.03;4824542;29;20137;-80
2023/07/21 11:45:39;;;;;;;3.80;2.03;;;;;;;20.53;nan;100338.91;4833544;29;20047;-80
2023/07/21 11:48:15;;;;;;;2.97;1.90;;;;;;;20.46;nan;100342.94;4815740;29;20414;-80
2023/07/21 11:50:49;;;;;;;8.60;2.70;;;;;;;20.49;nan;100334.69;4808820;29;20047;-80
2023/07/21 11:53:19;;;;;;;3.83;1.98;;;;;;;20.54;nan;100340.63;4796324;29;20047;-81